Time;durP1;ratioP1;P1;durP2;ratioP2;P2;SDS_P1;SDS_P2;PMS_P1;PMS_P2;Temp;Humidity;BMP_temperature;BMP_pressure;BME280_temperature;BME280_humidity;BME280_pressure;Samples;Min_cycle;Max_cycle;Signal;HPM_P1;HPM_P2
2021/12/08 00:00:37;;;;;;;5.27;3.63;;;;;;;5.29;88.42;95712.94;5049229;28;20322;-62
2021/12/08 00:03:06;;;;;;;4.30;3.43;;;;;;;5.41;87.55;95732.91;5047712;28;20217;-62
2021/12/08 00:05:34;;;;;;;4.70;3.33;;;;;;;5.32;85.58;95731.59;5049133;28;20203;-62
2021/12/08 00:08:01;;;;;;;4.60;2.87;;;;;;;5.23;87.91;95734.59;5061824;28;20285;-61
2021/12/08 00:10:52;;;;;;;4.33;3.07;;;;;;;5.24;87.59;95740.53;5065650;28;20202;-62
2021/12/08 00:13:17;;;;;;;3.80;2.67;;;;;;;5.19;87.20;95750.19;5067512;28;20202;-62
2021/12/08 00:15:47;;;;;;;2.73;2.40;;;;;;;5.07;87.51;95743.06;5067663;28;20206;-63
2021/12/08 00:18:17;;;;;;;2.40;2.00;;;;;;;5.01;88.68;95751.84;5068958;28;20210;-62
2021/12/08 00:20:46;;;;;;;1.70;1.60;;;;;;;5.03;82.72;95746.66;5067181;28;20237;-62
2021/12/08 00:23:15;;;;;;;1.73;1.50;;;;;;;5.14;81.41;95741.88;5068890;28;20545;-62
2021/12/08 00:25:43;;;;;;;1.23;1.13;;;;;;;5.22;79.13;95752.59;5066667;28;20293;-63
2021/12/08 00:28:11;;;;;;;1.97;1.70;;;;;;;5.19;81.87;95763.03;5068331;28;20196;-63
2021/12/08 00:30:40;;;;;;;5.20;2.00;;;;;;;4.90;87.54;95760.00;5068747;28;20193;-63
2021/12/08 00:33:08;;;;;;;2.33;1.80;;;;;;;4.75;87.79;95770.13;5067138;28;20232;-62
2021/12/08 00:35:37;;;;;;;2.97;1.80;;;;;;;4.78;87.45;95763.13;5068583;28;20205;-62
2021/12/08 00:38:05;;;;;;;2.03;1.80;;;;;;;4.85;87.85;95761.13;5066962;28;20194;-62
2021/12/08 00:40:33;;;;;;;2.00;1.90;;;;;;;4.78;87.87;95782.81;5068315;28;20246;-62
2021/12/08 00:43:04;;;;;;;1.90;1.70;;;;;;;4.95;86.91;95786.31;5067521;28;20226;-63
2021/12/08 00:45:31;;;;;;;3.30;1.60;;;;;;;5.06;86.78;95790.13;5067688;28;20183;-63
2021/12/08 00:47:58;;;;;;;3.33;2.07;;;;;;;4.93;86.82;95782.97;5068236;28;20202;-63
2021/12/08 00:50:28;;;;;;;5.20;2.80;;;;;;;5.13;86.53;95788.97;5066752;28;20210;-62
2021/12/08 00:52:57;;;;;;;2.30;2.10;;;;;;;5.18;86.24;95792.13;5067937;28;20198;-62
2021/12/08 00:55:26;;;;;;;2.70;2.00;;;;;;;5.22;86.17;95788.53;5066514;28;20218;-63
2021/12/08 00:57:54;;;;;;;2.97;2.07;;;;;;;4.92;86.89;95790.75;5068347;28;20253;-62
2021/12/08 01:00:27;;;;;;;2.63;1.60;;;;;;;4.93;83.07;95785.53;5067330;28;20224;-63
2021/12/08 01:02:55;;;;;;;1.37;1.27;;;;;;;5.07;81.97;95784.91;5065775;28;20192;-62
2021/12/08 01:05:26;;;;;;;1.23;1.10;;;;;;;5.06;76.22;95772.16;5068246;28;20615;-63
2021/12/08 01:07:54;;;;;;;0.80;0.80;;;;;;;5.28;71.31;95785.69;5066449;28;20200;-62
2021/12/08 01:10:24;;;;;;;0.70;0.70;;;;;;;5.26;71.16;95784.94;5067962;28;20185;-63
2021/12/08 01:13:04;;;;;;;0.90;0.90;;;;;;;5.31;71.54;95781.28;5066651;28;20308;-62
2021/12/08 01:15:32;;;;;;;0.90;0.90;;;;;;;5.20;71.04;95782.63;5067567;28;20642;-63
2021/12/08 01:17:59;;;;;;;0.70;0.70;;;;;;;5.23;70.77;95780.78;5067920;28;20269;-64
2021/12/08 01:20:27;;;;;;;0.90;0.90;;;;;;;5.19;70.56;95778.44;5066182;28;20236;-64
2021/12/08 01:22:53;;;;;;;1.53;0.90;;;;;;;5.12;69.98;95779.59;5067762;28;20201;-62
2021/12/08 01:25:20;;;;;;;0.80;0.80;;;;;;;5.08;69.79;95776.34;5065890;28;20256;-63
2021/12/08 01:27:47;;;;;;;0.90;0.70;;;;;;;5.04;70.17;95789.38;5067710;28;20240;-63
2021/12/08 01:30:15;;;;;;;0.90;0.90;;;;;;;4.86;70.31;95781.56;5066587;28;20197;-62
2021/12/08 01:32:42;;;;;;;0.77;0.77;;;;;;;4.85;69.69;95803.00;5067437;28;20225;-60
2021/12/08 01:35:10;;;;;;;0.70;0.70;;;;;;;4.79;69.56;95790.44;5067493;28;20703;-61
2021/12/08 01:37:38;;;;;;;0.83;0.80;;;;;;;4.88;70.14;95792.59;5066689;28;20251;-61
2021/12/08 01:40:09;;;;;;;0.90;0.90;;;;;;;4.85;68.84;95805.56;5067493;28;20204;-62
2021/12/08 01:42:43;;;;;;;1.03;0.90;;;;;;;4.93;69.10;95792.41;5065850;28;20233;-62
2021/12/08 01:48:01;;;;;;;0.70;0.70;;;;;;;4.87;69.43;95787.53;5067279;28;20200;-62
2021/12/08 01:50:28;;;;;;;1.27;0.80;;;;;;;4.76;68.24;95793.13;5064738;28;20189;-62
2021/12/08 01:52:55;;;;;;;0.80;0.80;;;;;;;4.79;69.38;95797.28;5067543;28;20206;-62
2021/12/08 01:55:22;;;;;;;0.67;0.67;;;;;;;4.74;68.31;95797.47;5066031;28;20192;-62
2021/12/08 01:57:49;;;;;;;1.13;0.77;;;;;;;4.68;69.22;95786.66;5067702;28;20631;-63
2021/12/08 02:00:25;;;;;;;0.70;0.70;;;;;;;4.79;69.89;95805.81;5066042;28;20275;-63
2021/12/08 02:02:59;;;;;;;1.07;0.60;;;;;;;4.77;68.94;95789.69;5066346;28;20232;-63
2021/12/08 02:05:27;;;;;;;0.97;0.70;;;;;;;4.75;67.84;95793.19;5067561;28;20273;-63
2021/12/08 02:07:54;;;;;;;1.27;0.80;;;;;;;4.78;68.18;95809.28;5065758;28;20207;-63
2021/12/08 02:10:23;;;;;;;0.70;0.70;;;;;;;4.80;68.95;95788.72;5067678;28;20220;-63
2021/12/08 02:12:50;;;;;;;0.70;0.70;;;;;;;4.83;67.70;95807.34;5065991;28;20209;-62
2021/12/08 02:15:19;;;;;;;0.70;0.70;;;;;;;4.89;68.33;95814.78;5067310;28;20195;-63
2021/12/08 02:17:49;;;;;;;0.80;0.80;;;;;;;4.97;68.27;95805.03;5066389;28;20191;-64
2021/12/08 02:20:20;;;;;;;0.80;0.80;;;;;;;4.97;67.82;95808.50;5066391;28;20601;-63
2021/12/08 02:22:48;;;;;;;0.87;0.80;;;;;;;4.97;68.89;95815.28;5067440;28;20201;-63
2021/12/08 02:25:19;;;;;;;0.80;0.80;;;;;;;4.90;68.28;95813.88;5065602;28;20194;-63
2021/12/08 02:27:46;;;;;;;2.03;1.60;;;;;;;4.79;68.87;95803.25;5067243;28;20220;-62
2021/12/08 02:49:06;;;;;;;0.80;0.80;;;;;;;4.88;67.92;95807.97;5070678;28;20290;-63
2021/12/08 02:51:36;;;;;;;0.80;0.80;;;;;;;4.96;67.73;95810.22;5069299;28;20713;-62
2021/12/08 02:54:04;;;;;;;1.10;0.80;;;;;;;4.97;67.11;95823.91;5070563;28;20206;-62
2021/12/08 02:56:32;;;;;;;1.50;1.23;;;;;;;5.06;67.82;95829.44;5069625;28;20202;-62
2021/12/08 02:59:00;;;;;;;1.43;0.80;;;;;;;5.11;67.37;95826.69;5069846;28;20202;-62
2021/12/08 03:01:28;;;;;;;0.83;0.83;;;;;;;5.05;67.61;95826.97;5070441;28;20256;-64
2021/12/08 03:03:55;;;;;;;0.70;0.70;;;;;;;5.08;67.43;95829.38;5068876;28;20260;-61
2021/12/08 03:06:22;;;;;;;0.67;0.67;;;;;;;4.99;67.16;95832.34;5070502;28;20572;-61
2021/12/08 03:08:50;;;;;;;1.63;0.70;;;;;;;4.97;67.43;95825.53;5068872;28;20205;-61
2021/12/08 03:11:17;;;;;;;0.70;0.70;;;;;;;5.02;67.36;95833.03;5070507;28;20259;-63
2021/12/08 03:13:59;;;;;;;1.10;1.00;;;;;;;5.06;67.93;95841.44;5069451;28;20209;-62
2021/12/08 03:16:26;;;;;;;0.90;0.90;;;;;;;5.00;67.90;95834.00;5069250;28;20275;-62
2021/12/08 03:18:54;;;;;;;1.73;1.07;;;;;;;5.10;66.74;95848.94;5070162;28;20695;-63
2021/12/08 03:21:28;;;;;;;1.13;1.03;;;;;;;5.10;67.58;95848.94;5068475;28;20217;-62
2021/12/08 03:24:09;;;;;;;2.33;1.00;;;;;;;5.06;67.44;95844.00;5070018;28;20197;-62
2021/12/08 03:26:46;;;;;;;0.93;0.80;;;;;;;5.11;66.82;95854.91;5068984;28;20201;-62
2021/12/08 03:29:52;;;;;;;1.00;1.00;;;;;;;5.14;67.10;95857.31;5069103;28;20177;-61
2021/12/08 03:32:12;;;;;;;2.13;1.13;;;;;;;5.07;68.03;95861.88;5067165;28;20214;-61
2021/12/08 03:34:50;;;;;;;1.17;1.03;;;;;;;5.04;67.67;95861.19;5068809;28;20205;-61
2021/12/08 03:37:25;;;;;;;1.10;1.00;;;;;;;5.03;68.81;95867.25;5069976;28;20203;-64
2021/12/08 03:39:53;;;;;;;1.47;0.90;;;;;;;5.08;67.43;95875.56;5069609;28;20208;-62
2021/12/08 03:42:23;;;;;;;0.80;0.80;;;;;;;5.03;67.89;95882.63;5068295;28;20748;-62
2021/12/08 03:44:54;;;;;;;1.07;0.87;;;;;;;4.97;68.15;95883.69;5069735;28;20625;-61
2021/12/08 03:47:26;;;;;;;0.90;0.90;;;;;;;5.00;68.11;95891.28;5067774;28;20251;-61
2021/12/08 03:49:55;;;;;;;1.33;1.00;;;;;;;5.10;68.54;95891.72;5069544;28;20190;-62
2021/12/08 03:52:22;;;;;;;0.90;0.90;;;;;;;5.02;67.22;95894.63;5068566;28;20248;-63
2021/12/08 03:54:49;;;;;;;1.60;1.27;;;;;;;5.01;68.04;95904.94;5069074;28;20197;-61
2021/12/08 03:57:17;;;;;;;2.47;1.40;;;;;;;4.91;67.94;95900.19;5069418;28;20198;-61
2021/12/08 03:59:44;;;;;;;1.50;1.40;;;;;;;4.85;67.40;95899.63;5067942;28;20271;-61
2021/12/08 04:02:11;;;;;;;2.67;2.00;;;;;;;4.80;68.30;95901.56;5069161;28;20701;-61
2021/12/08 04:04:46;;;;;;;1.33;1.23;;;;;;;4.82;68.59;95910.81;5067925;28;20197;-62
2021/12/08 04:07:15;;;;;;;1.43;1.20;;;;;;;4.70;69.07;95902.81;5069423;28;20205;-63
2021/12/08 04:09:44;;;;;;;1.20;1.10;;;;;;;4.73;68.87;95918.91;5068330;28;20190;-62
2021/12/08 04:12:15;;;;;;;1.70;1.13;;;;;;;4.71;68.63;95904.47;5068361;28;20190;-63
2021/12/08 04:14:51;;;;;;;1.00;1.00;;;;;;;4.69;68.82;95912.25;5069057;28;20247;-63
2021/12/08 04:17:32;;;;;;;1.00;1.00;;;;;;;4.63;68.60;95925.31;5066149;28;20204;-63
2021/12/08 04:20:02;;;;;;;1.10;1.03;;;;;;;4.61;68.55;95924.53;5067842;28;20217;-62
2021/12/08 04:22:34;;;;;;;1.13;1.10;;;;;;;4.60;68.55;95925.44;5067502;28;20228;-63
2021/12/08 04:25:16;;;;;;;1.10;1.00;;;;;;;4.56;69.03;95941.81;5068193;28;20254;-63
2021/12/08 04:27:45;;;;;;;1.77;1.17;;;;;;;4.50;69.22;95957.44;5065734;28;20199;-63
2021/12/08 04:30:18;;;;;;;1.17;1.07;;;;;;;4.52;68.91;95950.53;5066014;28;20200;-63
2021/12/08 04:32:45;;;;;;;1.00;1.00;;;;;;;4.55;68.73;95970.09;5068764;28;20672;-62
2021/12/08 04:35:15;;;;;;;1.20;1.10;;;;;;;4.52;68.56;95962.50;5067136;28;20200;-62
2021/12/08 04:37:47;;;;;;;1.10;1.00;;;;;;;4.50;67.93;95964.31;5068374;28;20712;-63
2021/12/08 04:40:37;;;;;;;1.03;1.00;;;;;;;4.52;68.43;95973.59;5068531;28;20200;-63
2021/12/08 04:43:16;;;;;;;1.20;1.10;;;;;;;4.44;68.54;95962.81;5066814;28;20228;-63
2021/12/08 04:46:02;;;;;;;1.53;1.40;;;;;;;4.44;69.04;95956.84;5068435;28;20587;-62
2021/12/08 05:07:30;;;;;;;2.23;2.03;;;;;;;4.49;68.49;95993.41;5066054;28;20560;-61
2021/12/08 05:10:02;;;;;;;15.30;6.13;;;;;;;4.51;68.72;95992.47;5049199;28;20269;-62
2021/12/08 05:12:32;;;;;;;5.73;3.70;;;;;;;4.48;68.70;95986.59;5059515;28;20223;-62
2021/12/08 05:15:02;;;;;;;3.67;3.03;;;;;;;4.52;68.16;95991.56;5066623;28;20185;-62
2021/12/08 05:17:38;;;;;;;3.07;2.60;;;;;;;4.57;68.28;95993.94;5065709;28;20673;-62
2021/12/08 05:20:15;;;;;;;5.63;2.27;;;;;;;4.49;68.11;95980.59;5067675;28;20606;-62
2021/12/08 05:22:49;;;;;;;2.80;1.93;;;;;;;4.46;68.10;95994.34;5066521;28;20678;-62
2021/12/08 05:25:22;;;;;;;2.00;1.60;;;;;;;4.49;67.96;95983.16;5067224;28;20616;-61
2021/12/08 05:27:54;;;;;;;1.93;1.47;;;;;;;4.48;68.62;96000.25;5067987;28;20188;-62
2021/12/08 05:30:40;;;;;;;2.50;2.30;;;;;;;4.54;67.84;96007.72;5065867;28;20194;-62
2021/12/08 05:33:10;;;;;;;1.50;1.40;;;;;;;4.48;67.80;96005.38;5067756;28;20291;-63
2021/12/08 05:35:39;;;;;;;1.60;1.47;;;;;;;4.49;67.30;95996.78;5066004;28;20209;-62
2021/12/08 05:38:07;;;;;;;3.07;2.00;;;;;;;4.54;67.85;96010.28;5067225;28;20255;-63
2021/12/08 05:40:42;;;;;;;4.63;1.40;;;;;;;4.54;68.16;96025.66;5067083;28;20197;-62
2021/12/08 05:43:10;;;;;;;2.10;1.20;;;;;;;4.51;67.32;96035.19;5065398;28;20234;-62
2021/12/08 05:45:39;;;;;;;2.73;1.47;;;;;;;4.42;67.58;96013.31;5067551;28;20293;-61
2021/12/08 05:48:06;;;;;;;2.03;1.50;;;;;;;4.48;67.89;96038.69;5065829;28;20185;-61
2021/12/08 05:50:36;;;;;;;2.17;1.70;;;;;;;4.53;67.89;96035.97;5067231;28;20200;-62
2021/12/08 05:53:04;;;;;;;1.80;1.50;;;;;;;4.52;67.68;96034.28;5064972;28;20557;-62
2021/12/08 05:55:31;;;;;;;1.60;1.50;;;;;;;4.54;67.66;96042.75;5065357;28;20201;-61
2021/12/08 05:57:59;;;;;;;2.33;1.70;;;;;;;4.56;67.71;96040.97;5067667;28;20205;-62
2021/12/08 06:00:39;;;;;;;2.77;2.57;;;;;;;4.54;68.29;96048.72;5065624;28;20659;-63
2021/12/08 06:03:07;;;;;;;3.37;1.93;;;;;;;4.51;67.80;96042.88;5067073;28;20290;-62
2021/12/08 06:05:35;;;;;;;1.97;1.40;;;;;;;4.60;67.20;96060.47;5065572;28;20228;-62
2021/12/08 06:08:03;;;;;;;1.60;1.30;;;;;;;4.61;67.65;96068.13;5049425;28;20568;-62
2021/12/08 06:10:33;;;;;;;1.20;1.20;;;;;;;4.57;67.62;96065.72;5067436;28;20271;-62
2021/12/08 06:13:01;;;;;;;1.47;1.30;;;;;;;4.50;67.82;96064.28;5070522;28;20194;-63
2021/12/08 06:15:29;;;;;;;12.00;4.90;;;;;;;4.57;67.81;96073.41;5070951;28;20205;-62
2021/12/08 06:17:56;;;;;;;4.07;3.23;;;;;;;4.59;68.23;96072.47;5069190;28;20262;-63
2021/12/08 06:20:24;;;;;;;4.03;2.20;;;;;;;4.66;67.96;96073.88;5071275;28;20513;-62
2021/12/08 06:22:54;;;;;;;4.77;2.43;;;;;;;4.68;67.15;96087.47;5069524;28;20226;-63
2021/12/08 06:25:21;;;;;;;3.57;2.20;;;;;;;4.71;67.57;96084.81;5070629;28;20227;-63
2021/12/08 06:27:49;;;;;;;3.67;2.73;;;;;;;4.62;67.67;96068.94;5070373;28;20710;-62
2021/12/08 06:30:21;;;;;;;8.27;3.23;;;;;;;4.80;67.84;96089.56;5069790;28;20189;-62
2021/12/08 06:32:49;;;;;;;2.00;1.77;;;;;;;4.79;67.25;96097.34;5070869;28;20193;-62
2021/12/08 06:35:22;;;;;;;2.47;2.07;;;;;;;4.90;66.83;96106.28;5069308;28;20222;-65
2021/12/08 06:37:50;;;;;;;3.60;2.13;;;;;;;4.85;66.47;96097.09;5070650;28;20198;-62
2021/12/08 06:40:28;;;;;;;2.47;2.00;;;;;;;4.70;66.77;96088.25;5069644;28;20225;-63
2021/12/08 06:43:01;;;;;;;1.50;1.40;;;;;;;4.99;65.64;96127.38;5070230;28;20253;-61
2021/12/08 06:45:34;;;;;;;1.87;1.77;;;;;;;5.06;66.52;96126.22;5070984;28;20186;-61
2021/12/08 06:48:05;;;;;;;2.97;1.70;;;;;;;4.97;66.33;96129.16;5069043;28;20191;-63
2021/12/08 06:50:38;;;;;;;3.13;2.13;;;;;;;5.09;66.10;96131.25;5070482;28;20238;-64
2021/12/08 06:53:05;;;;;;;2.00;1.87;;;;;;;5.16;66.20;96142.91;5068823;28;20193;-62
2021/12/08 06:55:39;;;;;;;4.23;2.70;;;;;;;5.00;67.72;96145.25;5069692;28;20745;-61
2021/12/08 06:58:12;;;;;;;5.23;3.60;;;;;;;4.81;70.25;96146.84;5070036;28;20193;-62
2021/12/08 07:01:15;;;;;;;9.10;5.93;;;;;;;5.04;71.02;96169.91;5068539;28;20206;-63
2021/12/08 07:03:52;;;;;;;8.67;5.00;;;;;;;5.19;71.17;96177.03;5070008;28;20260;-63
2021/12/08 07:09:18;;;;;;;6.97;4.23;;;;;;;5.52;72.50;96164.59;5068676;28;20267;-63
2021/12/08 07:11:47;;;;;;;5.00;3.03;;;;;;;5.51;71.87;96178.31;5069987;28;20195;-62
2021/12/08 07:14:15;;;;;;;8.77;3.87;;;;;;;5.55;71.23;96167.88;5068426;28;20182;-62
2021/12/08 07:16:46;;;;;;;12.97;7.17;;;;;;;5.47;73.12;96179.31;5069470;28;20700;-62
2021/12/08 07:19:27;;;;;;;6.67;5.03;;;;;;;5.27;75.28;96189.53;5068866;28;20206;-62
2021/12/08 07:21:56;;;;;;;8.13;5.50;;;;;;;5.26;75.77;96198.13;5068391;28;20225;-62
2021/12/08 07:24:29;;;;;;;5.97;4.23;;;;;;;5.15;75.12;96197.72;5069087;28;20190;-62
2021/12/08 07:27:01;;;;;;;17.27;9.97;;;;;;;5.24;75.32;96187.94;5067728;28;20208;-61
2021/12/08 07:29:34;;;;;;;9.30;5.77;;;;;;;5.45;73.65;96202.50;5069418;28;20250;-63
2021/12/08 07:32:08;;;;;;;12.77;6.80;;;;;;;5.57;72.23;96202.03;5068223;28;20218;-63
2021/12/08 07:34:36;;;;;;;6.23;3.10;;;;;;;5.71;69.43;96209.16;5068863;28;20199;-63
2021/12/08 07:37:12;;;;;;;14.70;6.30;;;;;;;5.58;68.42;96193.44;5069143;28;20245;-64
2021/12/08 07:39:52;;;;;;;8.37;4.60;;;;;;;5.58;65.92;96219.13;5068036;28;20604;-64
2021/12/08 07:42:47;;;;;;;4.57;2.93;;;;;;;5.57;67.07;96204.59;5069070;28;21073;-62
2021/12/08 07:45:20;;;;;;;3.10;2.20;;;;;;;5.68;65.74;96199.03;5068244;28;20317;-66
2021/12/08 07:47:49;;;;;;;7.27;3.03;;;;;;;5.59;66.32;96191.69;5068013;28;20579;-66
2021/12/08 07:50:29;;;;;;;3.83;2.83;;;;;;;5.53;65.59;96190.19;5069180;28;20195;-65
2021/12/08 07:52:57;;;;;;;3.47;2.43;;;;;;;5.68;65.94;96199.03;5067066;28;20198;-66
2021/12/08 07:55:32;;;;;;;4.70;2.33;;;;;;;5.72;65.12;96208.28;5068571;28;21024;-66
2021/12/08 07:58:00;;;;;;;2.70;2.30;;;;;;;5.76;65.45;96208.09;5067226;28;20285;-64
2021/12/08 08:00:35;;;;;;;3.97;2.20;;;;;;;5.79;65.72;96207.13;5068101;28;20223;-61
2021/12/08 08:03:04;;;;;;;3.80;2.47;;;;;;;5.83;64.77;96208.69;5068826;28;20230;-61
2021/12/08 08:05:32;;;;;;;5.77;3.63;;;;;;;5.82;65.59;96216.44;5065679;28;20454;-62
2021/12/08 08:08:04;;;;;;;4.20;2.50;;;;;;;5.87;65.27;96217.97;5068210;28;20202;-62
2021/12/08 08:10:38;;;;;;;3.30;2.93;;;;;;;5.85;65.26;96217.22;5064992;28;20193;-62
2021/12/08 08:13:08;;;;;;;2.40;1.93;;;;;;;5.87;65.39;96210.28;5068521;28;20639;-62
2021/12/08 08:15:40;;;;;;;2.67;2.10;;;;;;;5.69;65.00;96182.69;5067600;28;20515;-62
2021/12/08 08:18:10;;;;;;;3.73;2.10;;;;;;;5.88;65.41;96219.63;5066474;28;20649;-62
2021/12/08 08:20:42;;;;;;;3.77;1.90;;;;;;;5.79;66.15;96205.38;5068116;28;20685;-62
2021/12/08 08:23:10;;;;;;;2.93;2.23;;;;;;;5.85;65.96;96216.38;5066185;28;20215;-62
2021/12/08 08:25:41;;;;;;;3.50;2.40;;;;;;;5.83;66.18;96211.25;5067993;28;20207;-62
2021/12/08 08:28:09;;;;;;;2.47;2.10;;;;;;;5.88;65.19;96222.19;5067203;28;20581;-62
2021/12/08 08:30:42;;;;;;;3.30;2.43;;;;;;;5.83;66.26;96216.41;5067338;28;20194;-62
2021/12/08 08:33:10;;;;;;;2.80;2.37;;;;;;;5.82;66.74;96226.72;5068190;28;20212;-62
2021/12/08 08:35:42;;;;;;;3.30;2.60;;;;;;;5.93;66.07;96220.28;5064918;28;20194;-63
2021/12/08 08:38:17;;;;;;;2.17;1.97;;;;;;;6.01;64.99;96213.09;5066619;28;20593;-62
2021/12/08 08:40:50;;;;;;;4.43;2.63;;;;;;;6.00;64.94;96211.41;5064557;28;20197;-63
2021/12/08 08:43:18;;;;;;;2.83;2.33;;;;;;;6.11;65.47;96198.97;5066950;28;20231;-62
2021/12/08 08:45:52;;;;;;;4.57;3.27;;;;;;;6.20;65.43;96214.00;5067211;28;20667;-62
2021/12/08 08:48:27;;;;;;;8.97;3.00;;;;;;;6.37;64.80;96203.00;5065946;28;20594;-62
2021/12/08 08:51:24;;;;;;;3.43;2.80;;;;;;;6.28;64.84;96203.41;5066126;28;20746;-62
2021/12/08 08:53:57;;;;;;;4.87;3.13;;;;;;;6.34;65.72;96204.00;5057798;28;20209;-62
2021/12/08 08:56:34;;;;;;;5.93;3.50;;;;;;;6.42;64.49;96203.66;5066899;28;20185;-62
2021/12/08 08:59:12;;;;;;;5.50;3.10;;;;;;;6.51;64.21;96198.94;5066009;28;20282;-63
2021/12/08 09:01:46;;;;;;;3.73;2.60;;;;;;;6.50;64.03;96207.56;5064399;28;20705;-62
2021/12/08 09:04:19;;;;;;;3.17;2.57;;;;;;;6.37;64.71;96206.41;5067232;28;20323;-62
2021/12/08 09:06:49;;;;;;;4.10;2.70;;;;;;;6.42;64.88;96207.06;5065902;28;20203;-63
2021/12/08 09:09:22;;;;;;;13.27;3.17;;;;;;;6.42;65.36;96194.22;5065915;28;20206;-62
2021/12/08 09:12:04;;;;;;;5.17;2.97;;;;;;;6.48;65.33;96188.78;5066836;28;20623;-62
2021/12/08 09:14:36;;;;;;;3.83;2.63;;;;;;;6.48;64.34;96193.09;5065570;28;20593;-62
2021/12/08 09:17:14;;;;;;;4.43;2.90;;;;;;;6.54;64.85;96188.53;5067203;28;20200;-63
2021/12/08 09:19:50;;;;;;;2.77;2.47;;;;;;;6.54;63.79;96190.25;5081018;28;20276;-62
2021/12/08 09:22:28;;;;;;;4.07;2.87;;;;;;;6.64;65.54;96177.81;5066141;28;20714;-64
2021/12/08 09:25:19;;;;;;;4.53;3.60;;;;;;;6.68;64.08;96189.66;5066912;28;20204;-62
2021/12/08 09:27:51;;;;;;;4.63;3.30;;;;;;;6.75;65.06;96184.19;5063755;28;20207;-63
2021/12/08 09:30:32;;;;;;;3.53;3.00;;;;;;;6.76;64.08;96175.53;5066827;28;20594;-62
2021/12/08 09:33:06;;;;;;;7.70;4.20;;;;;;;6.83;63.83;96176.94;5065987;28;20196;-63
2021/12/08 09:35:54;;;;;;;4.20;3.30;;;;;;;6.86;63.47;96178.56;5065120;28;20304;-63
2021/12/08 09:38:32;;;;;;;7.07;2.90;;;;;;;6.90;64.18;96170.63;5066884;28;20281;-63
2021/12/08 09:41:11;;;;;;;4.23;3.00;;;;;;;6.93;63.86;96180.78;5065395;28;20699;-63
2021/12/08 09:43:43;;;;;;;10.93;3.43;;;;;;;6.98;63.45;96178.00;5066559;28;20225;-63
2021/12/08 09:46:25;;;;;;;3.20;2.80;;;;;;;6.92;63.22;96179.13;5066703;28;20204;-63
2021/12/08 09:48:58;;;;;;;5.27;2.90;;;;;;;6.90;63.71;96174.94;5064642;28;20208;-63
2021/12/08 09:51:27;;;;;;;6.27;3.43;;;;;;;7.04;63.50;96185.44;5066429;28;20200;-64
2021/12/08 09:53:55;;;;;;;4.33;3.13;;;;;;;7.01;63.17;96185.56;5063893;28;20226;-63
2021/12/08 09:56:23;;;;;;;4.30;2.90;;;;;;;6.96;64.15;96185.78;5066613;28;20652;-63
2021/12/08 09:58:52;;;;;;;2.97;2.60;;;;;;;6.86;63.13;96188.84;5066094;28;20215;-63
2021/12/08 10:01:22;;;;;;;3.00;1.97;;;;;;;6.70;63.59;96182.72;5065407;28;20203;-62
2021/12/08 10:03:52;;;;;;;2.40;2.20;;;;;;;6.67;63.52;96201.69;5066607;28;20286;-63
2021/12/08 10:06:21;;;;;;;4.00;2.80;;;;;;;6.75;64.27;96199.63;5063526;28;20185;-63
2021/12/08 10:08:49;;;;;;;9.73;3.90;;;;;;;6.88;64.69;96203.31;5066435;28;20211;-62
2021/12/08 10:11:18;;;;;;;5.03;3.53;;;;;;;7.01;64.69;96203.59;5064906;28;20192;-62
2021/12/08 10:13:46;;;;;;;5.10;3.80;;;;;;;7.13;64.26;96205.63;5064920;28;20642;-63
2021/12/08 10:16:14;;;;;;;8.50;5.53;;;;;;;7.17;63.47;96209.72;5065751;28;20676;-63
2021/12/08 10:18:43;;;;;;;13.30;7.10;;;;;;;7.30;63.21;96200.50;5065033;28;20207;-63
2021/12/08 10:21:13;;;;;;;7.03;5.10;;;;;;;7.07;63.55;96193.00;5066511;28;20197;-63
2021/12/08 10:23:45;;;;;;;7.90;5.90;;;;;;;7.30;63.15;96196.22;5064527;28;20231;-62
2021/12/08 10:26:16;;;;;;;11.03;4.67;;;;;;;7.37;62.08;96200.19;5066001;28;20611;-64
2021/12/08 10:28:53;;;;;;;6.00;4.00;;;;;;;7.37;62.31;96184.72;5080721;28;20208;-62
2021/12/08 10:31:34;;;;;;;6.63;4.77;;;;;;;7.25;61.64;96193.00;5065349;28;20195;-62
2021/12/08 10:34:06;;;;;;;10.37;6.10;;;;;;;7.43;61.84;96190.47;5064919;28;20274;-62
2021/12/08 10:37:03;;;;;;;11.93;5.17;;;;;;;7.56;62.44;96186.44;5063088;28;20204;-64
2021/12/08 10:39:33;;;;;;;7.23;4.93;;;;;;;7.75;62.37;96188.03;5066028;28;20204;-63
2021/12/08 10:42:06;;;;;;;6.80;4.43;;;;;;;7.84;61.14;96190.19;5065845;28;20224;-63
2021/12/08 10:45:01;;;;;;;6.57;4.13;;;;;;;7.81;61.01;96200.63;5064527;28;20193;-63
2021/12/08 10:47:43;;;;;;;5.07;3.77;;;;;;;7.80;61.53;96200.72;5065782;28;20276;-62
2021/12/08 10:56:40;;;;;;;8.40;4.03;;;;;;;7.84;61.50;96208.22;5066070;28;20189;-62
2021/12/08 10:59:07;;;;;;;4.13;3.23;;;;;;;7.89;61.89;96205.44;5068273;28;20203;-61
2021/12/08 11:01:35;;;;;;;6.17;3.67;;;;;;;8.00;61.97;96209.13;5067163;28;20280;-63
2021/12/08 11:04:08;;;;;;;4.87;3.80;;;;;;;7.98;61.62;96204.97;5069446;28;20212;-63
2021/12/08 11:06:37;;;;;;;7.17;3.80;;;;;;;7.62;60.63;96127.72;5049499;28;20203;-62
2021/12/08 11:09:13;;;;;;;4.63;3.97;;;;;;;8.13;61.11;96207.63;5069468;28;20268;-62
2021/12/08 11:11:43;;;;;;;3.63;2.97;;;;;;;8.23;59.80;96216.59;5066479;28;20197;-63
2021/12/08 11:14:12;;;;;;;6.13;3.90;;;;;;;8.16;60.46;96222.94;5068955;28;20747;-62
2021/12/08 11:16:42;;;;;;;4.03;2.80;;;;;;;8.08;60.99;96217.34;5067240;28;20789;-62
2021/12/08 11:19:14;;;;;;;6.70;4.53;;;;;;;8.12;60.80;96216.28;5065427;28;20213;-62
2021/12/08 11:21:59;;;;;;;6.17;5.00;;;;;;;8.20;60.38;96219.31;5068435;28;20738;-63
2021/12/08 11:24:34;;;;;;;6.40;4.10;;;;;;;8.22;60.66;96230.38;5065922;28;20229;-62
2021/12/08 11:27:04;;;;;;;9.40;4.47;;;;;;;8.17;60.86;96234.09;5068836;28;20189;-62
2021/12/08 11:29:34;;;;;;;7.80;3.80;;;;;;;8.15;60.88;96234.19;5069119;28;20204;-62
2021/12/08 11:32:05;;;;;;;6.63;4.00;;;;;;;8.15;61.19;96223.88;5067564;28;20195;-63
2021/12/08 11:34:39;;;;;;;11.10;4.67;;;;;;;8.17;61.26;96226.38;5069270;28;20604;-62
2021/12/08 11:37:16;;;;;;;4.67;4.10;;;;;;;8.17;60.22;96221.22;5066595;28;20676;-63
2021/12/08 11:39:51;;;;;;;6.00;3.73;;;;;;;7.99;61.19;96191.19;5068877;28;20192;-63
2021/12/08 11:42:24;;;;;;;8.00;4.07;;;;;;;8.27;61.01;96237.09;5068338;28;20261;-64
2021/12/08 11:45:11;;;;;;;6.00;4.00;;;;;;;8.10;61.28;96235.28;5067373;28;20288;-63
2021/12/08 11:47:38;;;;;;;4.33;3.30;;;;;;;7.99;61.06;96227.28;5068791;28;20193;-62
2021/12/08 11:50:12;;;;;;;4.70;4.20;;;;;;;8.09;61.49;96234.47;5067287;28;20197;-63
2021/12/08 11:52:40;;;;;;;7.00;5.47;;;;;;;8.08;61.28;96237.13;5068213;28;20185;-63
2021/12/08 11:55:19;;;;;;;4.57;3.60;;;;;;;7.95;61.04;96239.47;5068055;28;20672;-63
2021/12/08 11:57:52;;;;;;;5.80;3.97;;;;;;;8.13;61.35;96250.63;5067607;28;21350;-63
2021/12/08 12:00:22;;;;;;;7.07;5.70;;;;;;;8.26;61.62;96250.91;5068722;28;20199;-63
2021/12/08 12:02:57;;;;;;;13.67;5.03;;;;;;;8.43;60.84;96251.72;5066957;28;20756;-62
2021/12/08 12:05:33;;;;;;;12.43;5.10;;;;;;;8.68;60.78;96256.47;5068818;28;20987;-64
2021/12/08 12:08:01;;;;;;;11.93;4.47;;;;;;;8.75;60.28;96252.69;5066160;28;20204;-63
2021/12/08 12:10:32;;;;;;;6.33;4.60;;;;;;;8.90;59.17;96257.06;5067799;28;20195;-63
2021/12/08 12:13:03;;;;;;;7.83;4.30;;;;;;;8.84;59.43;96255.63;5068130;28;20212;-64
2021/12/08 12:15:30;;;;;;;3.30;2.70;;;;;;;8.65;60.01;96254.06;5066829;28;20213;-63
2021/12/08 12:17:58;;;;;;;3.80;2.70;;;;;;;8.43;60.82;96253.50;5068229;28;20200;-63
2021/12/08 12:20:38;;;;;;;6.17;3.50;;;;;;;8.51;61.35;96254.75;5066806;28;20189;-62
2021/12/08 12:23:45;;;;;;;6.63;4.50;;;;;;;8.64;60.99;96257.56;5067643;28;20647;-63
2021/12/08 12:26:22;;;;;;;4.83;4.20;;;;;;;8.87;60.51;96262.38;5066587;28;20223;-62
2021/12/08 12:29:11;;;;;;;13.13;4.30;;;;;;;8.84;60.75;96267.72;5066713;28;20201;-62
2021/12/08 12:31:56;;;;;;;12.17;5.53;;;;;;;8.90;60.03;96275.16;5067270;28;20196;-62
2021/12/08 12:34:23;;;;;;;16.50;9.53;;;;;;;8.64;60.41;96279.03;5067684;28;20276;-62
2021/12/08 12:36:50;;;;;;;8.40;5.30;;;;;;;8.55;60.54;96268.34;5066188;28;20665;-64
2021/12/08 12:39:24;;;;;;;4.23;3.47;;;;;;;8.61;60.34;96273.22;5067937;28;20205;-62
2021/12/08 12:42:16;;;;;;;6.57;4.10;;;;;;;8.50;61.47;96288.38;5065563;28;20233;-62
2021/12/08 12:45:02;;;;;;;6.33;5.03;;;;;;;8.63;60.75;96294.59;5066621;28;20236;-62
2021/12/08 12:47:30;;;;;;;3.93;2.90;;;;;;;8.51;60.20;96293.47;5065813;28;20208;-62
2021/12/08 12:50:00;;;;;;;3.73;3.23;;;;;;;8.21;60.92;96289.78;5065760;28;20247;-62
2021/12/08 12:52:43;;;;;;;3.60;2.60;;;;;;;8.20;61.23;96294.09;5067305;28;20678;-63
2021/12/08 12:55:10;;;;;;;4.87;3.23;;;;;;;8.27;60.78;96292.09;5066604;28;20271;-64